Time;durP1;ratioP1;P1;durP2;ratioP2;P2;SDS_P1;SDS_P2;PMS_P1;PMS_P2;Temp;Humidity;BMP_temperature;BMP_pressure;BME280_temperature;BME280_humidity;BME280_pressure;Samples;Min_cycle;Max_cycle;Signal;HPM_P1;HPM_P2
2023/12/19 00:00:10;;;;;;;33.25;16.27;;;;;;;4.84;100.00;102509.47;6340684;22;20002;-83
2023/12/19 00:02:35;;;;;;;31.55;16.55;;;;;;;4.84;100.00;102507.78;6340726;22;20007;-83
2023/12/19 00:05:01;;;;;;;36.67;17.88;;;;;;;4.87;100.00;102521.03;6340588;22;20070;-84
2023/12/19 00:07:29;;;;;;;32.38;16.95;;;;;;;4.94;100.00;102532.81;6312934;22;20003;-84
2023/12/19 00:09:54;;;;;;;32.97;16.52;;;;;;;4.92;100.00;102526.56;6312743;22;20026;-83
2023/12/19 00:12:19;;;;;;;32.15;16.23;;;;;;;4.83;100.00;102502.44;6340406;22;20322;-83
2023/12/19 00:14:45;;;;;;;29.90;17.55;;;;;;;4.94;100.00;102509.25;6340442;22;20003;-83
2023/12/19 00:17:10;;;;;;;37.05;18.45;;;;;;;4.94;100.00;102507.50;6312822;22;20007;-83
2023/12/19 00:19:36;;;;;;;32.17;16.60;;;;;;;4.98;100.00;102508.63;6340251;22;20413;-83
2023/12/19 00:22:02;;;;;;;39.97;18.25;;;;;;;4.98;100.00;102498.13;6312994;22;20003;-86
2023/12/19 00:24:27;;;;;;;36.58;20.13;;;;;;;4.98;100.00;102501.66;6312288;22;20086;-83
2023/12/19 00:26:53;;;;;;;39.70;19.17;;;;;;;4.92;100.00;102485.53;6340405;22;20006;-83
2023/12/19 00:29:18;;;;;;;35.35;17.73;;;;;;;4.81;100.00;102454.31;6312841;22;20017;-83
2023/12/19 00:31:44;;;;;;;41.95;18.80;;;;;;;4.99;100.00;102492.06;6340264;22;20042;-83
2023/12/19 00:34:10;;;;;;;34.65;17.75;;;;;;;4.98;100.00;102482.41;6312584;22;20010;-83
2023/12/19 00:36:36;;;;;;;34.35;17.70;;;;;;;4.88;100.00;102465.25;6286498;22;20072;-83
2023/12/19 00:39:04;;;;;;;35.85;17.83;;;;;;;4.90;100.00;102440.03;6312650;22;20013;-84
2023/12/19 00:41:29;;;;;;;30.73;16.90;;;;;;;5.03;100.00;102465.25;6287395;22;20008;-84
2023/12/19 00:43:55;;;;;;;37.67;19.00;;;;;;;5.02;100.00;102459.09;6339805;22;20482;-83
2023/12/19 00:46:20;;;;;;;36.22;17.80;;;;;;;5.01;100.00;102459.94;6312448;22;20085;-84
2023/12/19 00:48:46;;;;;;;36.95;17.48;;;;;;;5.00;100.00;102451.97;6286851;22;20433;-83
2023/12/19 00:51:11;;;;;;;31.08;17.27;;;;;;;5.02;100.00;102439.88;6312115;22;20029;-84
2023/12/19 00:53:37;;;;;;;38.15;17.58;;;;;;;5.05;100.00;102441.75;6339581;22;20007;-84
2023/12/19 00:56:07;;;;;;;32.30;16.65;;;;;;;5.09;100.00;102435.88;6312323;22;20006;-84
2023/12/19 00:58:33;;;;;;;40.47;17.30;;;;;;;5.08;100.00;102432.34;6340065;22;20052;-84
2023/12/19 01:00:58;;;;;;;39.42;17.17;;;;;;;5.07;100.00;102422.69;6312765;22;20015;-83
2023/12/19 01:03:24;;;;;;;34.92;16.17;;;;;;;5.06;100.00;102431.38;6339965;22;20086;-84
2023/12/19 01:05:49;;;;;;;35.42;17.42;;;;;;;5.07;100.00;102427.94;6312329;22;20013;-84
2023/12/19 01:08:14;;;;;;;35.70;17.27;;;;;;;5.11;100.00;102426.41;6339521;22;20003;-85
2023/12/19 01:10:40;;;;;;;41.42;17.13;;;;;;;5.05;100.00;102399.84;6311822;22;20447;-84
2023/12/19 01:13:05;;;;;;;37.05;17.33;;;;;;;5.11;100.00;102406.34;6339907;22;20003;-84
2023/12/19 01:15:30;;;;;;;39.25;19.48;;;;;;;5.10;100.00;102404.53;6285976;22;20034;-84
2023/12/19 01:17:56;;;;;;;37.53;18.85;;;;;;;4.97;100.00;102381.97;6312112;22;20007;-84
2023/12/19 01:20:21;;;;;;;30.88;16.08;;;;;;;5.09;100.00;102402.72;6312101;22;20371;-84
2023/12/19 01:22:47;;;;;;;40.33;18.38;;;;;;;5.12;100.00;102402.00;6339785;22;20003;-84
2023/12/19 01:25:12;;;;;;;36.55;18.73;;;;;;;5.00;100.00;102373.38;6312055;22;20006;-84
2023/12/19 01:27:37;;;;;;;40.00;17.88;;;;;;;5.12;100.00;102392.41;6339705;22;20027;-83
2023/12/19 01:30:03;;;;;;;41.50;18.33;;;;;;;5.18;100.00;102397.09;6286146;22;20064;-84
2023/12/19 01:32:28;;;;;;;37.20;17.13;;;;;;;5.11;100.00;102395.88;6339659;22;20387;-84
2023/12/19 01:34:54;;;;;;;35.42;15.93;;;;;;;5.03;100.00;102382.31;6311985;22;20006;-84
2023/12/19 01:37:19;;;;;;;34.92;17.77;;;;;;;5.20;100.00;102396.38;6339584;22;20007;-84
2023/12/19 01:39:44;;;;;;;39.72;17.27;;;;;;;5.03;100.00;102368.31;6286113;22;20059;-83
2023/12/19 01:42:10;;;;;;;46.38;20.52;;;;;;;5.12;100.00;102370.56;6339675;22;20333;-84
2023/12/19 01:44:35;;;;;;;38.97;18.67;;;;;;;5.17;100.00;102396.19;6339605;22;20086;-83
2023/12/19 01:47:00;;;;;;;38.05;18.80;;;;;;;5.22;100.00;102386.91;6311900;22;20086;-83
2023/12/19 01:49:26;;;;;;;39.58;18.52;;;;;;;5.24;100.00;102387.88;6339718;22;20063;-83
2023/12/19 01:51:51;;;;;;;39.45;19.35;;;;;;;5.19;100.00;102384.09;6311537;22;20014;-83
2023/12/19 01:54:18;;;;;;;39.03;18.27;;;;;;;5.19;100.00;102380.59;6311844;22;20017;-83
2023/12/19 01:56:44;;;;;;;35.67;16.95;;;;;;;5.14;100.00;102366.28;6339479;22;20425;-83
2023/12/19 01:59:10;;;;;;;38.65;19.08;;;;;;;5.26;100.00;102383.63;6286007;22;20007;-82
2023/12/19 02:01:36;;;;;;;36.72;17.65;;;;;;;5.25;100.00;102373.97;6339439;22;20026;-82
2023/12/19 02:04:02;;;;;;;40.60;20.00;;;;;;;5.21;100.00;102371.97;6311745;22;20078;-82
2023/12/19 02:06:28;;;;;;;38.47;19.20;;;;;;;5.18;100.00;102368.28;6311225;22;20026;-85
2023/12/19 02:08:53;;;;;;;41.08;17.58;;;;;;;5.30;100.00;102371.59;6311360;22;20011;-82
2023/12/19 02:11:18;;;;;;;36.17;17.38;;;;;;;5.32;100.00;102387.44;6338620;22;20379;-82
2023/12/19 02:13:45;;;;;;;35.60;17.27;;;;;;;5.32;100.00;102387.44;6311508;22;20356;-82
2023/12/19 02:16:10;;;;;;;36.85;17.33;;;;;;;5.31;100.00;102378.66;6338421;22;20056;-82
2023/12/19 02:18:36;;;;;;;35.60;17.52;;;;;;;5.21;100.00;102345.78;6285581;22;20011;-82
2023/12/19 02:21:02;;;;;;;44.70;20.33;;;;;;;5.33;100.00;102365.63;6311539;22;20329;-82
2023/12/19 02:23:27;;;;;;;45.28;18.27;;;;;;;5.17;100.00;102328.06;6338963;22;20002;-85
2023/12/19 02:25:53;;;;;;;38.55;17.10;;;;;;;5.36;100.00;102350.09;6311130;22;20010;-83
2023/12/19 02:28:19;;;;;;;35.42;17.55;;;;;;;5.32;100.00;102359.50;6338989;22;20090;-83
2023/12/19 02:30:44;;;;;;;32.60;16.65;;;;;;;5.34;100.00;102350.00;6338800;22;19998;-83
2023/12/19 02:33:09;;;;;;;40.08;17.25;;;;;;;5.35;100.00;102351.78;6311186;22;20233;-83
2023/12/19 02:35:35;;;;;;;38.45;16.95;;;;;;;5.35;100.00;102348.25;6311175;22;20003;-82
2023/12/19 02:38:00;;;;;;;36.45;17.52;;;;;;;5.35;100.00;102353.50;6311365;22;20006;-82
2023/12/19 02:40:26;;;;;;;38.78;17.30;;;;;;;5.32;100.00;102345.50;6285515;22;20015;-83
2023/12/19 02:42:51;;;;;;;36.50;16.10;;;;;;;5.20;100.00;102324.75;6311346;22;20418;-83
2023/12/19 02:45:16;;;;;;;32.08;17.33;;;;;;;5.32;100.00;102354.25;6338548;22;20045;-83
2023/12/19 02:47:42;;;;;;;35.85;17.00;;;;;;;5.20;100.00;102320.41;6311526;22;20439;-83
2023/12/19 02:50:08;;;;;;;41.30;18.63;;;;;;;5.32;100.00;102342.88;6310882;22;20085;-83
2023/12/19 02:52:34;;;;;;;38.03;17.67;;;;;;;5.20;100.00;102322.13;6339468;22;20030;-83
2023/12/19 02:54:59;;;;;;;32.05;16.42;;;;;;;5.32;100.00;102332.41;6312158;22;20098;-83
2023/12/19 02:57:25;;;;;;;36.10;18.10;;;;;;;5.24;100.00;102311.00;6339373;22;20007;-83
2023/12/19 03:04:06;;;;;;;34.42;17.35;;;;;;;5.27;100.00;102308.56;6338468;22;20022;-83
2023/12/19 03:20:54;;;;;;;27.30;14.10;;;;;;;5.27;100.00;102275.38;6338380;22;20011;-83
2023/12/19 03:23:20;;;;;;;34.00;16.90;;;;;;;5.23;100.00;102273.41;6339873;22;20007;-83
2023/12/19 03:25:46;;;;;;;31.65;15.65;;;;;;;5.17;100.00;102259.03;6339299;22;20034;-83
2023/12/19 03:28:38;;;;;;;29.92;14.75;;;;;;;5.29;100.00;102278.06;6339355;22;20036;-83
2023/12/19 03:34:28;;;;;;;36.78;17.60;;;;;;;5.24;100.00;102237.63;6339574;22;20466;-83
2023/12/19 03:40:15;;;;;;;30.65;14.75;;;;;;;5.32;100.00;102240.66;6339324;22;20034;-83
2023/12/19 03:42:41;;;;;;;28.63;15.30;;;;;;;5.27;100.00;102224.69;6339190;22;20007;-84
2023/12/19 03:45:06;;;;;;;33.78;15.68;;;;;;;5.23;100.00;102220.09;6339253;22;20311;-84
2023/12/19 03:47:32;;;;;;;29.40;14.95;;;;;;;5.29;100.00;102230.91;6338838;22;20007;-84
2023/12/19 03:49:57;;;;;;;31.05;14.10;;;;;;;5.35;100.00;102228.59;6311612;22;20010;-84
2023/12/19 03:52:23;;;;;;;29.40;15.50;;;;;;;5.38;100.00;102225.25;6306171;22;20012;-84
2023/12/19 03:54:50;;;;;;;28.67;14.60;;;;;;;5.37;100.00;102216.50;6305832;22;20333;-84
2023/12/19 03:57:16;;;;;;;30.20;15.13;;;;;;;5.36;100.00;102224.28;6307508;22;20018;-84
2023/12/19 03:59:42;;;;;;;23.88;13.27;;;;;;;5.39;100.00;102219.19;6280144;22;20011;-84
2023/12/19 04:02:08;;;;;;;24.52;13.27;;;;;;;5.38;100.00;102209.53;6306401;22;20035;-83
2023/12/19 04:04:33;;;;;;;27.60;14.18;;;;;;;5.38;100.00;102202.56;6280878;22;20418;-83
2023/12/19 04:06:59;;;;;;;30.90;15.13;;;;;;;5.40;100.00;102198.31;6308103;22;20004;-83
2023/12/19 04:09:24;;;;;;;25.55;13.45;;;;;;;5.32;100.00;102177.75;6307019;22;20027;-83
2023/12/19 04:11:49;;;;;;;32.67;17.15;;;;;;;5.41;100.00;102207.97;6307777;22;20014;-84
2023/12/19 04:14:15;;;;;;;31.73;16.25;;;;;;;5.45;100.00;102206.44;6309224;22;20387;-84
2023/12/19 04:16:41;;;;;;;33.70;16.50;;;;;;;5.45;100.00;102199.47;6309233;22;20003;-84
2023/12/19 04:19:06;;;;;;;34.72;16.20;;;;;;;5.44;100.00;102200.28;6309004;22;20007;-84
2023/12/19 04:21:32;;;;;;;37.33;17.52;;;;;;;5.27;100.00;102153.94;6307519;22;20065;-84
2023/12/19 04:23:57;;;;;;;38.65;18.40;;;;;;;5.48;100.00;102181.28;6309274;22;20003;-84
2023/12/19 04:26:23;;;;;;;36.80;18.35;;;;;;;5.47;100.00;102182.06;6309229;22;20325;-86
2023/12/19 04:28:48;;;;;;;45.15;19.27;;;;;;;5.41;100.00;102141.53;6307266;22;20011;-84
2023/12/19 04:31:14;;;;;;;40.58;18.20;;;;;;;5.53;100.00;102157.91;6281595;22;20011;-84
2023/12/19 04:33:39;;;;;;;44.05;19.98;;;;;;;5.44;100.00;102131.22;6307514;22;20061;-85
2023/12/19 04:36:07;;;;;;;49.03;22.05;;;;;;;5.52;100.00;102154.41;6309044;22;19999;-85
2023/12/19 04:38:32;;;;;;;46.10;19.65;;;;;;;5.59;100.00;102145.13;6308976;22;20007;-84
2023/12/19 04:40:58;;;;;;;42.63;20.63;;;;;;;5.58;100.00;102134.56;6309097;22;20017;-84
2023/12/19 04:43:24;;;;;;;39.78;19.17;;;;;;;5.62;100.00;102139.16;6308966;22;20010;-85
2023/12/19 04:45:50;;;;;;;48.45;21.45;;;;;;;5.62;100.00;102134.78;6281575;22;20011;-84
2023/12/19 04:48:16;;;;;;;41.70;18.98;;;;;;;5.62;100.00;102126.94;6308538;22;20337;-84
2023/12/19 04:50:41;;;;;;;46.67;23.05;;;;;;;5.65;100.00;102121.84;6281296;22;20026;-84
2023/12/19 04:53:07;;;;;;;47.97;20.88;;;;;;;5.66;100.00;102130.63;6308637;22;20056;-84
2023/12/19 04:55:33;;;;;;;47.60;21.33;;;;;;;5.67;100.00;102135.94;6308809;22;20007;-84
2023/12/19 04:57:58;;;;;;;45.22;20.23;;;;;;;5.61;100.00;102109.41;6308505;22;20336;-85
2023/12/19 05:00:24;;;;;;;44.45;20.40;;;;;;;5.67;100.00;102098.31;6308760;22;20381;-84
2023/12/19 05:02:49;;;;;;;42.38;20.27;;;;;;;5.71;100.00;102100.28;6308387;22;20009;-85
2023/12/19 05:05:14;;;;;;;46.78;19.77;;;;;;;5.69;100.00;102094.03;6308769;22;20406;-86
2023/12/19 05:07:40;;;;;;;41.33;20.13;;;;;;;5.70;100.00;102088.88;6308731;22;20076;-85
2023/12/19 05:10:06;;;;;;;42.40;20.58;;;;;;;5.58;100.00;102071.63;6308620;22;20039;-85
2023/12/19 05:12:31;;;;;;;41.63;19.20;;;;;;;5.81;100.00;102106.88;6308644;22;20014;-85
2023/12/19 05:14:56;;;;;;;44.67;21.10;;;;;;;5.62;100.00;102074.50;6307198;22;20368;-85
2023/12/19 05:17:22;;;;;;;39.25;21.15;;;;;;;5.85;100.00;102099.22;6306633;22;20034;-85
2023/12/19 05:19:47;;;;;;;41.75;19.10;;;;;;;5.60;100.00;102056.88;6281254;22;20011;-84
2023/12/19 05:22:13;;;;;;;38.92;19.75;;;;;;;5.87;100.00;102109.81;6306616;22;20094;-85
2023/12/19 05:24:41;;;;;;;39.15;18.45;;;;;;;5.88;100.00;102114.25;6308207;22;20388;-85
2023/12/19 05:27:06;;;;;;;42.63;18.83;;;;;;;5.93;100.00;102107.53;6308579;22;20421;-84
2023/12/19 05:29:32;;;;;;;44.60;20.38;;;;;;;5.87;100.00;102091.47;6306715;22;20009;-85
2023/12/19 05:31:57;;;;;;;36.10;17.30;;;;;;;5.94;100.00;102101.44;6306918;22;20018;-85
2023/12/19 05:34:23;;;;;;;36.25;18.70;;;;;;;6.00;100.00;102107.91;6308434;22;20004;-84
2023/12/19 05:36:48;;;;;;;40.88;19.75;;;;;;;5.84;100.00;102076.47;6306919;22;20008;-84
2023/12/19 05:39:15;;;;;;;41.92;20.60;;;;;;;5.98;100.00;102100.78;6280932;22;20057;-85
2023/12/19 05:41:40;;;;;;;41.10;20.85;;;;;;;6.01;100.00;102096.59;6307002;22;20019;-85
2023/12/19 05:44:06;;;;;;;38.28;19.05;;;;;;;6.02;100.00;102089.63;6281024;22;20033;-85
2023/12/19 05:46:32;;;;;;;43.42;19.73;;;;;;;6.05;100.00;102091.50;6280884;22;20329;-85
2023/12/19 05:48:57;;;;;;;40.42;20.85;;;;;;;6.11;100.00;102091.78;6306914;22;20031;-84
2023/12/19 05:51:25;;;;;;;46.03;21.48;;;;;;;5.82;100.00;102041.38;6306200;22;20441;-87
2023/12/19 05:53:50;;;;;;;32.00;18.42;;;;;;;6.07;100.00;102079.34;6308221;22;20030;-84
2023/12/19 05:56:16;;;;;;;36.60;18.58;;;;;;;6.10;100.00;102087.38;6308215;22;20377;-84
2023/12/19 05:58:44;;;;;;;35.58;19.77;;;;;;;6.05;100.00;102052.16;6308160;22;20007;-84
2023/12/19 06:01:09;;;;;;;44.20;23.25;;;;;;;5.99;100.00;102052.72;6307860;22;20031;-84
2023/12/19 06:03:35;;;;;;;36.55;20.70;;;;;;;6.15;100.00;102051.75;6308114;22;20440;-84
2023/12/19 06:06:00;;;;;;;36.90;19.15;;;;;;;5.81;100.00;101996.72;6306508;22;20012;-84
2023/12/19 06:08:26;;;;;;;42.20;19.35;;;;;;;6.11;100.00;102050.69;6307673;22;20085;-85
2023/12/19 06:10:52;;;;;;;32.53;17.27;;;;;;;6.16;100.00;102051.81;6306310;22;20003;-85
2023/12/19 06:13:18;;;;;;;35.42;17.77;;;;;;;6.15;100.00;102049.13;6306323;22;20003;-85
2023/12/19 06:15:44;;;;;;;31.95;17.10;;;;;;;6.18;100.00;102050.19;6306286;22;20011;-86
2023/12/19 06:18:09;;;;;;;36.83;18.08;;;;;;;6.19;100.00;102049.34;6280463;22;20034;-86
2023/12/19 06:20:34;;;;;;;29.98;16.95;;;;;;;6.24;100.00;102057.44;6307994;22;20013;-86
2023/12/19 06:23:00;;;;;;;36.75;17.83;;;;;;;6.09;100.00;102041.88;6307952;22;20034;-85
2023/12/19 06:25:25;;;;;;;37.65;18.05;;;;;;;6.07;100.00;102032.09;6280533;22;20011;-86
2023/12/19 06:27:52;;;;;;;37.15;19.38;;;;;;;6.19;100.00;102046.72;6306527;22;20014;-86
2023/12/19 06:30:17;;;;;;;31.95;16.88;;;;;;;6.18;100.00;102044.94;6307422;22;20003;-85
2023/12/19 06:32:43;;;;;;;36.05;18.98;;;;;;;6.20;100.00;102051.13;6305784;22;20091;-85
2023/12/19 06:35:09;;;;;;;30.55;16.92;;;;;;;6.25;100.00;102046.09;6306263;22;20486;-85
2023/12/19 06:37:35;;;;;;;29.10;15.45;;;;;;;6.25;100.00;102044.41;6307474;22;20004;-85
2023/12/19 06:40:02;;;;;;;34.58;16.35;;;;;;;6.21;100.00;102033.66;6307340;22;20088;-85
2023/12/19 06:42:28;;;;;;;30.80;16.63;;;;;;;6.30;100.00;102051.59;6307828;22;20007;-85
2023/12/19 06:44:53;;;;;;;27.55;15.52;;;;;;;6.35;100.00;102047.47;6306347;22;20410;-86
2023/12/19 06:47:19;;;;;;;29.15;15.70;;;;;;;6.32;100.00;102042.06;6307607;22;20026;-85
2023/12/19 06:49:47;;;;;;;30.20;16.45;;;;;;;6.40;100.00;102038.06;6305885;22;20011;-85
2023/12/19 06:52:12;;;;;;;29.83;15.32;;;;;;;6.31;100.00;102014.91;6306205;22;20445;-85
2023/12/19 06:54:38;;;;;;;31.45;16.48;;;;;;;6.15;100.00;101996.63;6305969;22;20049;-86
2023/12/19 06:57:05;;;;;;;27.17;14.98;;;;;;;6.41;100.00;102039.84;6305682;22;20086;-85
2023/12/19 06:59:33;;;;;;;29.52;15.80;;;;;;;6.37;100.00;102030.94;6307651;22;20003;-85
2023/12/19 07:01:59;;;;;;;30.95;15.45;;;;;;;6.44;100.00;102043.53;6306014;22;20007;-85
2023/12/19 07:04:24;;;;;;;29.10;15.80;;;;;;;6.44;100.00;102040.00;6307212;22;20011;-84
2023/12/19 07:06:49;;;;;;;29.52;17.23;;;;;;;6.34;100.00;102019.38;6306048;22;20013;-85
2023/12/19 07:09:15;;;;;;;29.65;13.77;;;;;;;6.41;100.00;102021.47;6280330;22;20011;-86
2023/12/19 07:11:41;;;;;;;32.42;17.67;;;;;;;6.34;100.00;102007.19;6307515;22;20007;-85
2023/12/19 07:14:07;;;;;;;28.90;15.75;;;;;;;6.45;100.00;102020.78;6307644;22;20041;-85
2023/12/19 07:16:33;;;;;;;29.20;17.48;;;;;;;6.39;100.00;102008.28;6305773;22;20003;-85
2023/12/19 07:19:00;;;;;;;29.13;16.58;;;;;;;6.49;100.00;102028.88;6307642;22;20030;-85
2023/12/19 07:21:26;;;;;;;26.92;15.45;;;;;;;6.50;100.00;102024.53;6307192;22;20004;-85
2023/12/19 07:23:53;;;;;;;26.42;15.95;;;;;;;6.50;100.00;102025.41;6305930;22;20108;-85
2023/12/19 07:26:19;;;;;;;28.30;15.43;;;;;;;6.50;100.00;102011.41;6307205;22;20034;-85
2023/12/19 07:28:45;;;;;;;27.15;15.38;;;;;;;6.53;100.00;102008.91;6305815;22;20322;-84
2023/12/19 07:31:19;;;;;;;24.52;12.95;;;;;;;6.50;100.00;101996.53;6307496;22;20090;-85
2023/12/19 07:33:45;;;;;;;25.13;14.63;;;;;;;6.55;100.00;102003.72;6307272;22;20100;-85
2023/12/19 07:36:10;;;;;;;26.95;14.45;;;;;;;6.59;100.00;102019.69;6306107;22;20039;-85
2023/12/19 07:38:35;;;;;;;23.33;13.95;;;;;;;6.62;100.00;102016.31;6306906;22;20448;-85
2023/12/19 07:41:01;;;;;;;26.33;15.90;;;;;;;6.59;100.00;102017.06;6280085;22;20037;-85
2023/12/19 07:43:26;;;;;;;26.05;14.48;;;;;;;6.49;100.00;101999.09;6307496;22;20399;-85
2023/12/19 07:45:52;;;;;;;24.75;13.80;;;;;;;6.66;100.00;102020.88;6307862;22;20431;-85
2023/12/19 07:48:17;;;;;;;26.70;14.98;;;;;;;6.63;100.00;102021.63;6281855;22;20329;-85
2023/12/19 07:50:42;;;;;;;26.88;13.75;;;;;;;6.49;100.00;101994.75;6307643;22;20023;-86
2023/12/19 07:53:08;;;;;;;23.08;13.88;;;;;;;6.64;100.00;102018.19;6307950;22;20500;-86
2023/12/19 07:55:33;;;;;;;25.33;14.35;;;;;;;6.57;100.00;101991.59;6307679;22;20011;-85
2023/12/19 07:57:59;;;;;;;21.55;13.75;;;;;;;6.55;100.00;101990.59;6309160;22;20108;-85
2023/12/19 08:00:24;;;;;;;24.05;13.88;;;;;;;6.69;100.00;102007.91;6309485;22;20414;-86
2023/12/19 08:02:50;;;;;;;22.25;11.52;;;;;;;6.47;100.00;101964.91;6307490;22;20094;-85
2023/12/19 08:05:16;;;;;;;21.60;12.55;;;;;;;6.71;100.00;102011.47;6281819;22;20008;-86
2023/12/19 08:07:41;;;;;;;18.42;11.80;;;;;;;6.71;100.00;101996.59;6307513;22;20094;-86
2023/12/19 08:10:07;;;;;;;23.77;13.38;;;;;;;6.62;100.00;101974.28;6308921;22;20378;-85
2023/12/19 08:12:32;;;;;;;22.63;12.57;;;;;;;6.75;100.00;101985.41;6307152;22;20358;-85
2023/12/19 08:14:58;;;;;;;23.13;13.48;;;;;;;6.64;100.00;101960.41;6307413;22;20042;-85
2023/12/19 08:17:23;;;;;;;24.92;12.93;;;;;;;6.73;100.00;101984.47;6308974;22;20007;-85
2023/12/19 08:19:49;;;;;;;20.83;12.02;;;;;;;6.70;100.00;101986.94;6309672;22;20333;-84
2023/12/19 08:22:14;;;;;;;24.27;12.45;;;;;;;6.47;100.00;101943.91;6307287;22;20137;-86
2023/12/19 08:24:40;;;;;;;19.70;12.77;;;;;;;6.73;100.00;101988.81;6308803;22;20057;-84
2023/12/19 08:27:05;;;;;;;20.45;10.93;;;;;;;6.73;100.00;101989.72;6306986;22;20078;-85
2023/12/19 08:29:31;;;;;;;22.48;12.70;;;;;;;6.36;100.00;101926.75;6281263;22;20011;-86
2023/12/19 08:31:56;;;;;;;20.33;12.95;;;;;;;6.67;100.00;101985.91;6307141;22;20007;-87
2023/12/19 08:34:21;;;;;;;21.65;13.15;;;;;;;6.51;100.00;101953.72;6307128;22;20017;-86
2023/12/19 08:36:47;;;;;;;23.33;12.48;;;;;;;6.51;100.00;101955.44;6307297;22;20004;-86
2023/12/19 08:39:12;;;;;;;20.38;11.27;;;;;;;6.63;100.00;101981.34;6283391;22;20137;-86
2023/12/19 08:41:37;;;;;;;21.65;12.23;;;;;;;6.63;100.00;101986.59;6281212;22;20007;-88
2023/12/19 08:44:03;;;;;;;26.40;14.45;;;;;;;6.59;100.00;101980.28;6307021;22;20014;-87
2023/12/19 08:46:29;;;;;;;17.95;10.98;;;;;;;6.61;100.00;101975.13;6307881;22;20017;-86
2023/12/19 08:48:54;;;;;;;19.42;11.00;;;;;;;6.56;100.00;101969.69;6307246;22;20414;-87
2023/12/19 08:51:21;;;;;;;21.58;12.15;;;;;;;6.52;100.00;101957.25;6325033;22;20045;-87
2023/12/19 08:53:46;;;;;;;27.13;13.13;;;;;;;6.58;100.00;101973.25;6312460;22;20018;-89
2023/12/19 08:56:12;;;;;;;24.17;12.73;;;;;;;6.57;100.00;101968.84;6338588;22;20014;-87
2023/12/19 08:58:37;;;;;;;19.75;11.88;;;;;;;6.48;100.00;101952.69;6311946;22;20046;-88
2023/12/19 09:01:03;;;;;;;23.98;13.45;;;;;;;6.49;100.00;101946.59;6286899;22;20034;-91
2023/12/19 09:03:29;;;;;;;20.85;11.77;;;;;;;6.55;100.00;101959.97;6287032;22;20421;-90
2023/12/19 09:06:01;;;;;;;26.02;13.45;;;;;;;6.55;100.00;101954.72;6312198;22;20014;-92
2023/12/19 09:09:04;;;;;;;;;;;;;;;;;;;;;
2023/12/19 09:12:06;;;;;;;23.92;12.00;;;;;;;6.57;100.00;101965.31;6321297;22;20091;-92
2023/12/19 09:14:46;;;;;;;;;;;;;;;;;;;;;
2023/12/19 09:17:12;;;;;;;23.33;12.38;;;;;;;6.06;100.00;101872.88;6313631;22;20074;-90
2023/12/19 09:19:38;;;;;;;22.05;12.15;;;;;;;6.30;100.00;101920.34;6337653;22;20121;-88
2023/12/19 09:22:03;;;;;;;17.52;11.00;;;;;;;6.38;100.00;101927.75;6283995;22;20015;-88
2023/12/19 09:24:30;;;;;;;20.27;10.60;;;;;;;6.15;100.00;101876.81;6337779;22;20055;-87
2023/12/19 09:26:58;;;;;;;18.30;11.60;;;;;;;6.56;100.00;101950.41;6337279;22;20482;-87
2023/12/19 09:29:25;;;;;;;22.63;11.65;;;;;;;6.30;100.00;101894.09;6310671;22;20007;-88
2023/12/19 09:31:51;;;;;;;20.48;10.65;;;;;;;6.57;100.00;101937.34;6311806;22;20003;-86
2023/12/19 09:34:17;;;;;;;16.73;9.50;;;;;;;6.39;100.00;101905.91;6311569;22;20448;-85
2023/12/19 09:36:53;;;;;;;15.23;9.77;;;;;;;6.56;100.00;101927.66;6339651;22;20003;-87
2023/12/19 09:39:18;;;;;;;15.20;8.32;;;;;;;6.39;100.00;101894.50;6313701;22;20333;-87
2023/12/19 09:41:47;;;;;;;17.10;10.38;;;;;;;6.58;100.00;101927.72;6311820;22;20075;-86
2023/12/19 09:44:12;;;;;;;16.20;9.73;;;;;;;6.57;100.00;101933.81;6311502;22;20010;-86
2023/12/19 09:46:41;;;;;;;16.15;10.30;;;;;;;6.57;100.00;101932.06;6338910;22;20011;-87
2023/12/19 09:49:09;;;;;;;13.10;8.95;;;;;;;6.54;100.00;101910.94;6311482;22;20011;-85
2023/12/19 09:51:42;;;;;;;16.30;9.43;;;;;;;6.34;100.00;101877.63;6339010;22;20025;-86
2023/12/19 09:54:07;;;;;;;15.40;9.07;;;;;;;6.62;100.00;101927.03;6311620;22;20329;-89
2023/12/19 09:56:34;;;;;;;13.40;9.43;;;;;;;6.61;100.00;101917.34;6311277;22;20006;-86
2023/12/19 09:59:03;;;;;;;17.27;9.80;;;;;;;6.62;100.00;101906.03;6339064;22;20060;-86
2023/12/19 10:01:28;;;;;;;13.82;8.25;;;;;;;6.63;100.00;101908.69;6311702;22;20140;-87
2023/12/19 10:03:55;;;;;;;13.07;8.25;;;;;;;6.62;100.00;101891.16;6311781;22;20034;-87
2023/12/19 10:06:24;;;;;;;12.80;8.13;;;;;;;6.66;100.00;101900.06;6311829;22;20011;-87
2023/12/19 10:08:53;;;;;;;11.35;7.15;;;;;;;6.61;100.00;101886.75;6338665;22;20026;-89
2023/12/19 10:11:21;;;;;;;12.95;7.88;;;;;;;6.65;100.00;101893.03;6338506;22;19999;-87
2023/12/19 10:13:47;;;;;;;10.18;7.15;;;;;;;6.65;100.00;101886.03;6312470;22;20007;-88
2023/12/19 10:16:13;;;;;;;12.38;8.25;;;;;;;6.67;100.00;101888.72;6339111;22;20436;-90
2023/12/19 10:18:39;;;;;;;12.50;7.63;;;;;;;6.69;100.00;101887.97;6311190;22;20447;-90
2023/12/19 10:21:15;;;;;;;12.68;7.35;;;;;;;6.65;100.00;101877.28;6338773;22;20011;-90
2023/12/19 10:23:41;;;;;;;13.23;7.28;;;;;;;6.71;100.00;101894.19;6313381;22;20006;-90
2023/12/19 10:26:09;;;;;;;11.32;7.18;;;;;;;6.70;100.00;101870.47;6311728;22;20006;-89
2023/12/19 10:28:36;;;;;;;13.20;7.70;;;;;;;6.73;100.00;101876.78;6311537;22;20010;-90
2023/12/19 10:31:14;;;;;;;13.77;7.85;;;;;;;6.63;100.00;101858.81;6285635;22;20045;-90
2023/12/19 10:33:45;;;;;;;10.73;7.70;;;;;;;6.74;100.00;101870.69;6285632;22;20441;-90
2023/12/19 10:36:32;;;;;;;11.82;8.68;;;;;;;6.76;100.00;101861.13;6311054;22;20073;-91
2023/12/19 10:39:03;;;;;;;13.00;8.02;;;;;;;6.75;100.00;101846.19;6291706;22;20022;-92
2023/12/19 10:41:32;;;;;;;10.82;7.35;;;;;;;6.78;100.00;101848.06;6340397;22;20003;-90
2023/12/19 10:44:02;;;;;;;11.95;7.55;;;;;;;6.74;100.00;101838.25;6310585;22;20042;-91
2023/12/19 10:46:30;;;;;;;12.35;7.97;;;;;;;6.84;100.00;101840.44;6311894;22;20010;-92
2023/12/19 10:49:03;;;;;;;15.05;8.30;;;;;;;6.81;100.00;101819.31;6338935;22;20006;-91
2023/12/19 10:51:32;;;;;;;11.85;8.60;;;;;;;6.84;100.00;101835.19;6316996;22;20015;-92
2023/12/19 10:54:08;;;;;;;13.43;7.55;;;;;;;6.72;100.00;101813.66;6310832;22;20007;-92
2023/12/19 10:56:40;;;;;;;12.18;7.60;;;;;;;6.85;100.00;101825.56;6310351;22;20014;-91
2023/12/19 10:59:14;;;;;;;12.00;7.88;;;;;;;6.85;100.00;101815.06;6310556;22;20013;-92
2023/12/19 11:01:45;;;;;;;11.90;8.23;;;;;;;6.70;100.00;101763.69;6311619;22;20056;-93
2023/12/19 11:04:22;;;;;;;14.07;8.93;;;;;;;6.86;100.00;101790.59;6310788;22;20038;-96
2023/12/19 11:06:55;;;;;;;13.70;8.25;;;;;;;6.82;100.00;101770.28;6339239;22;20031;-92
2023/12/19 11:09:33;;;;;;;15.52;8.80;;;;;;;6.85;100.00;101755.56;6339669;22;20024;-92
2023/12/19 11:12:04;;;;;;;15.30;9.50;;;;;;;6.91;100.00;101763.66;6340337;22;19999;-92
2023/12/19 11:14:35;;;;;;;12.45;8.35;;;;;;;6.82;100.00;101751.91;6292929;22;20017;-93
2023/12/19 11:17:10;;;;;;;15.25;8.70;;;;;;;6.89;100.00;101761.81;6312889;22;20010;-96
2023/12/19 11:19:48;;;;;;;14.80;8.80;;;;;;;6.93;100.00;101759.34;6341792;22;20014;-92
2023/12/19 11:22:28;;;;;;;13.68;8.70;;;;;;;6.93;100.00;101756.72;6343045;22;20073;-92
2023/12/19 11:25:02;;;;;;;13.43;8.85;;;;;;;6.93;100.00;101755.84;6314940;22;20336;-94
2023/12/19 11:27:37;;;;;;;15.02;8.20;;;;;;;6.92;100.00;101754.06;6315166;22;20011;-92
2023/12/19 11:30:03;;;;;;;14.63;8.27;;;;;;;6.91;100.00;101731.25;6314266;22;20473;-91
2023/12/19 11:32:34;;;;;;;11.95;7.88;;;;;;;6.96;100.00;101733.22;6315423;22;20003;-90
2023/12/19 11:35:26;;;;;;;12.95;7.55;;;;;;;6.95;100.00;101727.91;6342067;22;20007;-91
2023/12/19 11:38:14;;;;;;;12.73;6.60;;;;;;;6.95;100.00;101739.31;6326748;22;20049;-90